Time;durP1;ratioP1;P1;durP2;ratioP2;P2;SDS_P1;SDS_P2;PMS_P1;PMS_P2;Temp;Humidity;BMP_temperature;BMP_pressure;BME280_temperature;BME280_humidity;BME280_pressure;Samples;Min_cycle;Max_cycle;Signal;HPM_P1;HPM_P2
2023/05/08 00:01:08;;;;;;;;;;;21.60;90.10;;;;;;5081397;28;19908;-17
2023/05/08 00:03:34;;;;;;;;;;;21.60;90.20;;;;;;5082230;28;20281;-15
2023/05/08 00:06:02;;;;;;;;;;;21.50;90.10;;;;;;5081916;28;19928;-17
2023/05/08 00:08:28;;;;;;;;;;;21.50;90.10;;;;;;5099726;28;19961;-17
2023/05/08 00:10:53;;;;;;;;;;;21.50;90.10;;;;;;5082010;28;19912;-16
2023/05/08 00:13:30;;;;;;;;;;;21.50;90.10;;;;;;5099522;28;19919;-16
2023/05/08 00:15:56;;;;;;;;;;;21.50;90.10;;;;;;5099750;28;20163;-18
2023/05/08 00:18:21;;;;;;;;;;;21.50;90.10;;;;;;5099356;28;20330;-18
2023/05/08 00:20:47;;;;;;;;;;;21.50;90.10;;;;;;5099412;28;19919;-16
2023/05/08 00:23:15;;;;;;;;;;;21.50;90.10;;;;;;5099297;28;19994;-14
2023/05/08 00:25:41;;;;;;;;;;;21.50;90.10;;;;;;5098593;28;19958;-15
2023/05/08 00:28:06;;;;;;;;;;;21.50;90.10;;;;;;5098959;28;19956;-15
2023/05/08 00:30:32;;;;;;;;;;;21.50;90.10;;;;;;5099314;28;19919;-15
2023/05/08 00:33:05;;;;;;;;;;;21.50;90.10;;;;;;5081062;28;19908;-18
2023/05/08 00:35:30;;;;;;;;;;;21.40;90.10;;;;;;5098958;28;19990;-16
2023/05/08 00:37:56;;;;;;;;;;;21.40;90.10;;;;;;5081666;28;20226;-14
2023/05/08 00:40:22;;;;;;;;;;;21.40;90.10;;;;;;5099211;28;19920;-16
2023/05/08 00:42:47;;;;;;;;;;;21.40;90.10;;;;;;5099019;28;19920;-16
2023/05/08 00:45:13;;;;;;;;;;;21.40;90.10;;;;;;5099150;28;19918;-18
2023/05/08 00:47:57;;;;;;;;;;;21.40;90.10;;;;;;5098916;28;19923;-16
2023/05/08 00:50:22;;;;;;;;;;;21.40;90.10;;;;;;5081447;28;19908;-15
2023/05/08 00:52:48;;;;;;;;;;;21.40;90.10;;;;;;5098985;28;19994;-13
2023/05/08 00:55:15;;;;;;;;;;;21.40;90.10;;;;;;5099529;28;19909;-16
2023/05/08 00:58:05;;;;;;;;;;;21.40;90.10;;;;;;5099025;28;20309;-17
2023/05/08 01:00:31;;;;;;;;;;;21.40;90.10;;;;;;5099191;28;19916;-16
2023/05/08 01:02:58;;;;;;;;;;;21.30;90.10;;;;;;5098765;28;19908;-15
2023/05/08 01:05:24;;;;;;;;;;;21.30;90.10;;;;;;5098632;28;19944;-15
2023/05/08 01:07:52;;;;;;;;;;;21.30;90.10;;;;;;5098960;28;19959;-16
2023/05/08 01:10:17;;;;;;;;;;;21.30;90.10;;;;;;5098799;28;19908;-16
2023/05/08 01:13:05;;;;;;;;;;;21.30;90.10;;;;;;5098473;28;20194;-15
2023/05/08 01:15:50;;;;;;;;;;;21.30;90.10;;;;;;5098530;28;20251;-16
2023/05/08 01:18:18;;;;;;;;;;;21.30;90.10;;;;;;5098750;28;19916;-17
2023/05/08 01:20:46;;;;;;;;;;;21.30;90.10;;;;;;5081204;28;19918;-16
2023/05/08 01:23:27;;;;;;;;;;;21.30;90.10;;;;;;5080884;28;19912;-17
2023/05/08 01:26:13;;;;;;;;;;;21.20;90.10;;;;;;5098204;28;19915;-16
2023/05/08 01:28:38;;;;;;;;;;;21.20;90.10;;;;;;5098334;28;19980;-16
2023/05/08 01:31:20;;;;;;;;;;;21.20;90.10;;;;;;5097954;28;19908;-16
2023/05/08 01:34:05;;;;;;;;;;;21.20;90.10;;;;;;5098096;28;19908;-18
2023/05/08 01:36:31;;;;;;;;;;;21.20;90.10;;;;;;5098414;28;19908;-16
2023/05/08 01:38:56;;;;;;;;;;;21.30;90.10;;;;;;5097804;28;19912;-15
2023/05/08 01:41:24;;;;;;;;;;;21.20;90.10;;;;;;5080624;28;19923;-16
2023/05/08 01:44:05;;;;;;;;;;;21.20;90.10;;;;;;5079653;28;20273;-14
2023/05/08 01:46:31;;;;;;;;;;;21.20;90.10;;;;;;5098077;28;19978;-18
2023/05/08 01:49:11;;;;;;;;;;;21.20;90.10;;;;;;5097262;28;19948;-14
2023/05/08 01:51:42;;;;;;;;;;;21.20;90.10;;;;;;5097159;28;19919;-15
2023/05/08 01:54:09;;;;;;;;;;;21.20;90.10;;;;;;5097644;28;19908;-17
2023/05/08 01:56:37;;;;;;;;;;;21.20;90.10;;;;;;5097806;28;19908;-15
2023/05/08 01:59:03;;;;;;;;;;;21.20;90.10;;;;;;5097887;28;19912;-17
2023/05/08 02:01:34;;;;;;;;;;;21.10;90.10;;;;;;5080268;28;20193;-17
2023/05/08 02:04:01;;;;;;;;;;;21.10;90.10;;;;;;5080468;28;19939;-16
2023/05/08 02:06:27;;;;;;;;;;;21.10;90.00;;;;;;5097941;28;19989;-16
2023/05/08 02:08:53;;;;;;;;;;;21.10;90.00;;;;;;5097941;28;19916;-18
2023/05/08 02:11:20;;;;;;;;;;;21.10;90.00;;;;;;5098026;28;20281;-17
2023/05/08 02:13:46;;;;;;;;;;;21.10;90.00;;;;;;5085976;28;20226;-17
2023/05/08 02:16:13;;;;;;;;;;;21.10;90.00;;;;;;5077716;28;19926;-17
2023/05/08 02:18:41;;;;;;;;;;;21.10;90.00;;;;;;5077600;28;19959;-16
2023/05/08 02:21:23;;;;;;;;;;;21.10;90.00;;;;;;5077671;28;19908;-13
2023/05/08 02:23:49;;;;;;;;;;;21.10;90.00;;;;;;5077606;28;19909;-18
2023/05/08 02:26:15;;;;;;;;;;;21.10;90.00;;;;;;5080902;28;19962;-16
2023/05/08 02:28:41;;;;;;;;;;;21.10;90.00;;;;;;5063655;28;20245;-15
2023/05/08 02:31:08;;;;;;;;;;;21.00;90.00;;;;;;5063851;28;19908;-15
2023/05/08 02:33:34;;;;;;;;;;;21.00;90.00;;;;;;5081291;28;20205;-15
2023/05/08 02:36:07;;;;;;;;;;;21.00;90.00;;;;;;5080854;28;20278;-18
2023/05/08 02:38:34;;;;;;;;;;;21.00;90.00;;;;;;5063766;28;19909;-16
2023/05/08 02:41:00;;;;;;;;;;;21.00;90.00;;;;;;5063712;28;19908;-17
2023/05/08 02:43:26;;;;;;;;;;;21.00;90.00;;;;;;5063234;28;19909;-15
2023/05/08 02:46:19;;;;;;;;;;;21.00;90.00;;;;;;5080900;28;19912;-18
2023/05/08 02:48:58;;;;;;;;;;;21.00;90.00;;;;;;5046170;28;20057;-15
2023/05/08 02:51:24;;;;;;;;;;;21.00;90.00;;;;;;5080621;28;20066;-16
2023/05/08 02:54:19;;;;;;;;;;;21.00;90.00;;;;;;5063441;28;19981;-15
2023/05/08 02:56:57;;;;;;;;;;;21.00;90.00;;;;;;5046065;28;19908;-15
2023/05/08 02:59:29;;;;;;;;;;;21.00;90.00;;;;;;5080526;28;19920;-17
2023/05/08 03:02:17;;;;;;;;;;;20.90;89.90;;;;;;5080719;28;19908;-14
2023/05/08 03:04:50;;;;;;;;;;;20.90;89.90;;;;;;5080663;28;20289;-17
2023/05/08 03:07:15;;;;;;;;;;;20.90;89.90;;;;;;5046140;28;19908;-16
2023/05/08 03:09:43;;;;;;;;;;;20.90;89.90;;;;;;5080400;28;19909;-15
2023/05/08 03:12:14;;;;;;;;;;;20.90;89.90;;;;;;5062755;28;19954;-15
2023/05/08 03:14:43;;;;;;;;;;;20.90;89.90;;;;;;5062505;28;19916;-17
2023/05/08 03:17:11;;;;;;;;;;;20.90;89.90;;;;;;5079559;28;19956;-17
2023/05/08 03:19:37;;;;;;;;;;;20.90;89.90;;;;;;5062622;28;19923;-16
2023/05/08 03:22:24;;;;;;;;;;;20.90;89.90;;;;;;5073284;28;19912;-15
2023/05/08 03:24:50;;;;;;;;;;;20.90;89.90;;;;;;5066167;28;19913;-15
2023/05/08 03:27:16;;;;;;;;;;;20.90;89.90;;;;;;5060054;28;20344;-15
2023/05/08 03:29:42;;;;;;;;;;;20.90;89.90;;;;;;5042968;28;19920;-17
2023/05/08 03:32:10;;;;;;;;;;;20.90;89.90;;;;;;5040024;28;19936;-16
2023/05/08 03:34:36;;;;;;;;;;;20.90;89.90;;;;;;5055430;28;19908;-16
2023/05/08 03:37:02;;;;;;;;;;;20.90;89.80;;;;;;5037301;28;20061;-16
2023/05/08 03:39:27;;;;;;;;;;;20.80;89.80;;;;;;5036130;28;19909;-13
2023/05/08 03:41:54;;;;;;;;;;;20.80;89.70;;;;;;5037519;28;20178;-16
2023/05/08 03:44:20;;;;;;;;;;;20.80;89.70;;;;;;5038322;28;19998;-17
2023/05/08 03:46:46;;;;;;;;;;;20.80;89.70;;;;;;5038936;28;19912;-13
2023/05/08 03:49:13;;;;;;;;;;;20.80;89.70;;;;;;5037264;28;19913;-18
2023/05/08 03:51:39;;;;;;;;;;;20.80;89.80;;;;;;5056360;28;20237;-15
2023/05/08 03:54:04;;;;;;;;;;;20.80;89.70;;;;;;5036915;28;20290;-18
2023/05/08 03:56:30;;;;;;;;;;;20.80;89.70;;;;;;5054332;28;19909;-17
2023/05/08 03:59:16;;;;;;;;;;;20.80;89.70;;;;;;5054756;28;22282;-17
2023/05/08 04:01:51;;;;;;;;;;;20.80;89.70;;;;;;5055004;28;19916;-17
2023/05/08 04:04:18;;;;;;;;;;;20.80;89.70;;;;;;5055795;28;20377;-14
2023/05/08 04:07:02;;;;;;;;;;;20.80;89.70;;;;;;5055363;28;19912;-17
2023/05/08 04:09:33;;;;;;;;;;;20.70;89.60;;;;;;5054346;28;19917;-17
2023/05/08 04:11:59;;;;;;;;;;;20.80;89.70;;;;;;5037032;28;19962;-15
2023/05/08 04:14:26;;;;;;;;;;;20.70;89.60;;;;;;5052646;28;19920;-16
2023/05/08 04:16:55;;;;;;;;;;;20.70;89.50;;;;;;5052065;28;19920;-15
2023/05/08 04:19:25;;;;;;;;;;;20.70;89.50;;;;;;5071311;28;19954;-15
2023/05/08 04:21:54;;;;;;;;;;;20.70;89.50;;;;;;5055303;28;20143;-16
2023/05/08 04:24:21;;;;;;;;;;;20.70;89.50;;;;;;5072300;28;19908;-16
2023/05/08 04:26:47;;;;;;;;;;;20.70;89.50;;;;;;5072592;28;20274;-13
2023/05/08 04:29:12;;;;;;;;;;;20.70;89.50;;;;;;5053479;28;19922;-17
2023/05/08 04:31:39;;;;;;;;;;;20.70;89.40;;;;;;5070137;28;19909;-18
2023/05/08 04:34:05;;;;;;;;;;;20.70;89.50;;;;;;5071369;28;19938;-16
2023/05/08 04:36:32;;;;;;;;;;;20.70;89.40;;;;;;5071243;28;19908;-15
2023/05/08 04:38:58;;;;;;;;;;;20.70;89.40;;;;;;5070975;28;19927;-15
2023/05/08 04:41:25;;;;;;;;;;;20.70;89.40;;;;;;5068857;28;19916;-16
2023/05/08 04:43:50;;;;;;;;;;;20.70;89.40;;;;;;5052570;28;20267;-16
2023/05/08 04:46:16;;;;;;;;;;;20.70;89.30;;;;;;5070318;28;20014;-16
2023/05/08 04:48:41;;;;;;;;;;;20.70;89.20;;;;;;5069727;28;20168;-15
2023/05/08 04:51:07;;;;;;;;;;;20.70;89.20;;;;;;5069739;28;20474;-17
2023/05/08 04:53:33;;;;;;;;;;;20.70;89.20;;;;;;5069095;28;19920;-15
2023/05/08 04:55:58;;;;;;;;;;;20.70;89.20;;;;;;5070323;28;19908;-16
2023/05/08 04:58:24;;;;;;;;;;;20.70;89.30;;;;;;5071893;28;19909;-16
2023/05/08 05:00:49;;;;;;;;;;;20.70;89.30;;;;;;5071250;28;19920;-16
2023/05/08 05:03:15;;;;;;;;;;;20.70;89.40;;;;;;5072197;28;19905;-16
2023/05/08 05:05:40;;;;;;;;;;;20.70;89.30;;;;;;5052144;28;19943;-16
2023/05/08 05:08:06;;;;;;;;;;;20.70;89.40;;;;;;5069531;28;20104;-18
2023/05/08 05:10:32;;;;;;;;;;;20.80;89.70;;;;;;5068548;28;19908;-13
2023/05/08 05:12:57;;;;;;;;;;;20.80;89.70;;;;;;5068768;28;19913;-15
2023/05/08 05:15:23;;;;;;;;;;;20.80;89.90;;;;;;5051514;28;19912;-18
2023/05/08 05:17:49;;;;;;;;;;;20.80;89.80;;;;;;5067373;28;19916;-15
2023/05/08 05:20:14;;;;;;;;;;;20.80;89.90;;;;;;5069047;28;19916;-17
2023/05/08 05:22:40;;;;;;;;;;;20.80;90.00;;;;;;5049753;28;20015;-16
2023/05/08 05:25:05;;;;;;;;;;;20.80;90.10;;;;;;5067138;28;19908;-15
2023/05/08 05:27:33;;;;;;;;;;;20.80;90.10;;;;;;5049026;28;19934;-16
2023/05/08 05:29:59;;;;;;;;;;;20.80;90.00;;;;;;5049257;28;19974;-17
2023/05/08 05:32:25;;;;;;;;;;;20.90;90.20;;;;;;5066200;28;20358;-16
2023/05/08 05:34:51;;;;;;;;;;;21.00;90.10;;;;;;5067690;28;19912;-15
2023/05/08 05:37:17;;;;;;;;;;;21.00;90.10;;;;;;5064652;28;20141;-16
2023/05/08 05:39:42;;;;;;;;;;;21.10;90.00;;;;;;5063898;28;19970;-15
2023/05/08 05:42:08;;;;;;;;;;;21.10;89.70;;;;;;5064359;28;19919;-14
2023/05/08 05:44:33;;;;;;;;;;;21.20;89.60;;;;;;5046955;28;19908;-18
2023/05/08 05:46:59;;;;;;;;;;;21.20;89.20;;;;;;5063868;28;19974;-15
2023/05/08 05:49:25;;;;;;;;;;;21.30;89.30;;;;;;5045217;28;19920;-13
2023/05/08 05:51:50;;;;;;;;;;;21.40;89.20;;;;;;5045225;28;19908;-16
2023/05/08 05:54:16;;;;;;;;;;;21.40;89.20;;;;;;5063782;28;20345;-17
2023/05/08 05:56:41;;;;;;;;;;;21.50;89.00;;;;;;5065808;28;19912;-13
2023/05/08 05:59:07;;;;;;;;;;;21.60;88.30;;;;;;5045438;28;19909;-18
2023/05/08 06:01:33;;;;;;;;;;;21.70;87.70;;;;;;5067088;28;19913;-18
2023/05/08 06:03:58;;;;;;;;;;;21.80;88.40;;;;;;5066966;28;20339;-16
2023/05/08 06:06:24;;;;;;;;;;;21.90;87.20;;;;;;5069363;28;20286;-17
2023/05/08 06:08:50;;;;;;;;;;;22.00;87.00;;;;;;5067905;28;19990;-17
2023/05/08 06:11:15;;;;;;;;;;;22.00;86.90;;;;;;5068194;28;20066;-13
2023/05/08 06:13:42;;;;;;;;;;;22.10;87.50;;;;;;5053299;28;19909;-17
2023/05/08 06:16:08;;;;;;;;;;;22.10;86.80;;;;;;5052367;28;19909;-17
2023/05/08 06:18:33;;;;;;;;;;;22.10;86.70;;;;;;5061791;28;20058;-14
2023/05/08 06:20:59;;;;;;;;;;;22.10;86.40;;;;;;5070557;28;19920;-18
2023/05/08 06:23:25;;;;;;;;;;;22.20;86.90;;;;;;5070773;28;19909;-14
2023/05/08 06:25:51;;;;;;;;;;;22.20;85.90;;;;;;5072339;28;20270;-14
2023/05/08 06:28:17;;;;;;;;;;;22.30;85.40;;;;;;5070866;28;19912;-17
2023/05/08 06:30:43;;;;;;;;;;;22.30;85.00;;;;;;5070125;28;19912;-15
2023/05/08 06:33:08;;;;;;;;;;;22.30;84.50;;;;;;5068314;28;19919;-17
2023/05/08 06:35:34;;;;;;;;;;;22.30;84.40;;;;;;5068150;28;19947;-16
2023/05/08 06:38:00;;;;;;;;;;;22.20;85.30;;;;;;5069041;28;20146;-16
2023/05/08 06:40:26;;;;;;;;;;;22.20;85.70;;;;;;5069045;28;19909;-17
2023/05/08 06:42:51;;;;;;;;;;;22.20;85.70;;;;;;5070454;28;20325;-18
2023/05/08 06:45:17;;;;;;;;;;;22.10;85.80;;;;;;5070207;28;20204;-16
2023/05/08 06:47:43;;;;;;;;;;;22.10;85.70;;;;;;5068722;28;20180;-16
2023/05/08 06:50:08;;;;;;;;;;;22.10;85.40;;;;;;5070062;28;20240;-17
2023/05/08 06:52:34;;;;;;;;;;;22.00;85.80;;;;;;5071451;28;19999;-18
2023/05/08 06:54:59;;;;;;;;;;;22.00;86.00;;;;;;5067782;28;19952;-17
2023/05/08 06:57:26;;;;;;;;;;;22.00;85.90;;;;;;5052416;28;20348;-18
2023/05/08 06:59:52;;;;;;;;;;;22.00;86.00;;;;;;5069146;28;19935;-15
2023/05/08 07:02:18;;;;;;;;;;;22.00;86.30;;;;;;5070132;28;19916;-15
2023/05/08 07:04:44;;;;;;;;;;;21.90;85.80;;;;;;5069869;28;19915;-16
2023/05/08 07:07:10;;;;;;;;;;;21.90;85.90;;;;;;5068860;28;20011;-16
2023/05/08 07:09:36;;;;;;;;;;;21.90;86.00;;;;;;5069866;28;19912;-15
2023/05/08 07:12:01;;;;;;;;;;;21.90;86.40;;;;;;5066552;28;19909;-15
2023/05/08 07:14:27;;;;;;;;;;;21.90;86.40;;;;;;5067990;28;19909;-18
2023/05/08 07:16:53;;;;;;;;;;;21.90;86.30;;;;;;5068910;28;20281;-17
2023/05/08 07:19:19;;;;;;;;;;;22.00;86.20;;;;;;5065953;28;19916;-15
2023/05/08 07:21:45;;;;;;;;;;;22.00;86.00;;;;;;5069777;28;19919;-15
2023/05/08 07:24:10;;;;;;;;;;;22.00;85.80;;;;;;5066176;28;19917;-17
2023/05/08 07:26:36;;;;;;;;;;;22.00;85.40;;;;;;5068146;28;19938;-16
2023/05/08 07:29:02;;;;;;;;;;;22.00;85.10;;;;;;5069914;28;20254;-18
2023/05/08 07:31:27;;;;;;;;;;;22.00;85.10;;;;;;5068636;28;19971;-18
2023/05/08 07:33:53;;;;;;;;;;;22.00;84.70;;;;;;5066364;28;19962;-16
2023/05/08 07:36:18;;;;;;;;;;;22.00;85.30;;;;;;5067997;28;20244;-14
2023/05/08 07:38:44;;;;;;;;;;;22.00;84.90;;;;;;5066522;28;20198;-17
2023/05/08 07:41:10;;;;;;;;;;;22.10;84.70;;;;;;5067917;28;19916;-16
2023/05/08 07:43:36;;;;;;;;;;;22.10;84.70;;;;;;5067463;28;19919;-17
2023/05/08 07:46:01;;;;;;;;;;;22.20;84.50;;;;;;5068985;28;20184;-14
2023/05/08 07:48:27;;;;;;;;;;;22.20;84.30;;;;;;5069331;28;19927;-18
2023/05/08 07:50:52;;;;;;;;;;;22.20;84.20;;;;;;5069366;28;19913;-18
2023/05/08 07:53:18;;;;;;;;;;;22.10;84.00;;;;;;5066310;28;20085;-14
2023/05/08 07:55:43;;;;;;;;;;;22.10;84.20;;;;;;5070000;28;19913;-16
2023/05/08 07:58:09;;;;;;;;;;;22.10;84.40;;;;;;5069603;28;19912;-18
2023/05/08 08:00:35;;;;;;;;;;;22.00;83.80;;;;;;5069036;28;19908;-15
2023/05/08 08:03:01;;;;;;;;;;;22.00;84.30;;;;;;5069661;28;19908;-15
2023/05/08 08:05:27;;;;;;;;;;;22.00;84.50;;;;;;5070897;28;20111;-16
2023/05/08 08:07:52;;;;;;;;;;;22.00;84.60;;;;;;5069521;28;19943;-19
2023/05/08 08:10:18;;;;;;;;;;;22.00;84.80;;;;;;5069977;28;19920;-15
2023/05/08 08:12:44;;;;;;;;;;;21.90;84.80;;;;;;5070182;28;19982;-17
2023/05/08 08:15:10;;;;;;;;;;;21.90;85.00;;;;;;5068311;28;19919;-16
2023/05/08 08:17:36;;;;;;;;;;;21.90;84.90;;;;;;5067485;28;19912;-16
2023/05/08 08:20:02;;;;;;;;;;;21.90;85.10;;;;;;5051117;28;19909;-17
2023/05/08 08:22:27;;;;;;;;;;;21.90;85.40;;;;;;5068551;28;20229;-16
2023/05/08 08:24:56;;;;;;;;;;;21.90;85.30;;;;;;5068460;28;19909;-17
2023/05/08 08:27:21;;;;;;;;;;;21.90;85.10;;;;;;5067540;28;19930;-15
2023/05/08 08:29:47;;;;;;;;;;;21.90;85.30;;;;;;5051310;28;20131;-16
2023/05/08 08:32:13;;;;;;;;;;;21.90;85.30;;;;;;5069140;28;20092;-19
2023/05/08 08:34:38;;;;;;;;;;;21.90;85.20;;;;;;5067647;28;20095;-16
2023/05/08 08:37:05;;;;;;;;;;;21.90;85.20;;;;;;5046166;28;20049;-16
2023/05/08 08:39:34;;;;;;;;;;;21.90;85.30;;;;;;5047469;28;20200;-17
2023/05/08 08:41:59;;;;;;;;;;;21.90;85.50;;;;;;5047775;28;20129;-16
2023/05/08 08:44:26;;;;;;;;;;;21.90;85.20;;;;;;5066647;28;20005;-18
2023/05/08 08:46:52;;;;;;;;;;;21.90;85.50;;;;;;5065784;28;19921;-17
2023/05/08 08:49:20;;;;;;;;;;;21.90;85.30;;;;;;5065826;28;19913;-16
2023/05/08 08:51:51;;;;;;;;;;;21.90;85.40;;;;;;5075078;28;19920;-16
2023/05/08 08:54:20;;;;;;;;;;;21.90;85.30;;;;;;5077699;28;19908;-16
2023/05/08 08:56:46;;;;;;;;;;;21.90;85.50;;;;;;5071652;28;19909;-18
2023/05/08 08:59:12;;;;;;;;;;;21.90;85.30;;;;;;5067723;28;20267;-18
2023/05/08 09:01:39;;;;;;;;;;;21.90;85.20;;;;;;5066554;28;19981;-17
2023/05/08 09:04:05;;;;;;;;;;;21.90;85.40;;;;;;5068352;28;19943;-16
2023/05/08 09:06:34;;;;;;;;;;;21.90;85.30;;;;;;5068080;28;20422;-17
2023/05/08 09:09:00;;;;;;;;;;;22.00;84.90;;;;;;5049782;28;20266;-16
2023/05/08 09:11:26;;;;;;;;;;;21.90;84.80;;;;;;5047811;28;19908;-15
2023/05/08 09:13:53;;;;;;;;;;;22.00;84.70;;;;;;5066711;28;19908;-18
2023/05/08 09:16:19;;;;;;;;;;;22.00;84.60;;;;;;5048716;28;19916;-17
2023/05/08 09:18:44;;;;;;;;;;;22.00;84.20;;;;;;5047243;28;20168;-17
2023/05/08 09:21:10;;;;;;;;;;;22.10;84.10;;;;;;5048525;28;19944;-16
2023/05/08 09:23:35;;;;;;;;;;;22.10;83.80;;;;;;5047708;28;20094;-16
2023/05/08 09:26:01;;;;;;;;;;;22.20;83.70;;;;;;5066414;28;20206;-16
2023/05/08 09:28:27;;;;;;;;;;;22.20;83.40;;;;;;5046803;28;19912;-17
2023/05/08 09:30:57;;;;;;;;;;;22.30;83.10;;;;;;5065970;28;19909;-17
2023/05/08 09:33:24;;;;;;;;;;;22.30;82.90;;;;;;5067030;28;20333;-15
2023/05/08 09:35:50;;;;;;;;;;;22.40;82.70;;;;;;5048127;28;19913;-18
2023/05/08 09:38:42;;;;;;;;;;;22.40;82.30;;;;;;5049320;28;20089;-17
2023/05/08 09:41:14;;;;;;;;;;;22.40;82.20;;;;;;5061990;28;19917;-17
2023/05/08 09:43:40;;;;;;;;;;;22.40;82.00;;;;;;5066953;28;20252;-16
2023/05/08 09:46:17;;;;;;;;;;;22.50;82.10;;;;;;5067946;28;19944;-16
2023/05/08 09:48:44;;;;;;;;;;;22.40;82.00;;;;;;5050557;28;19928;-17
2023/05/08 09:51:10;;;;;;;;;;;22.40;82.00;;;;;;5066673;28;19916;-16
2023/05/08 09:53:35;;;;;;;;;;;22.50;81.90;;;;;;5067214;28;19942;-18
2023/05/08 09:56:01;;;;;;;;;;;22.50;81.90;;;;;;5066634;28;19917;-17
2023/05/08 09:58:36;;;;;;;;;;;22.50;81.60;;;;;;5065599;28;19908;-16
2023/05/08 10:01:02;;;;;;;;;;;22.50;81.50;;;;;;5064787;28;19920;-18
2023/05/08 10:03:45;;;;;;;;;;;22.50;81.70;;;;;;5048857;28;20144;-16
2023/05/08 10:06:12;;;;;;;;;;;22.50;81.80;;;;;;5063781;28;19909;-17
2023/05/08 10:08:38;;;;;;;;;;;22.50;82.20;;;;;;5064341;28;19924;-19
2023/05/08 10:11:14;;;;;;;;;;;22.40;81.80;;;;;;5065653;28;19908;-16
2023/05/08 10:13:39;;;;;;;;;;;22.40;82.00;;;;;;5065376;28;20099;-18
2023/05/08 10:16:06;;;;;;;;;;;22.40;82.60;;;;;;5063695;28;19909;-16
2023/05/08 10:18:34;;;;;;;;;;;22.40;82.10;;;;;;5063933;28;20174;-18
2023/05/08 10:21:02;;;;;;;;;;;22.40;82.40;;;;;;5064006;28;20339;-18
2023/05/08 10:23:28;;;;;;;;;;;22.30;82.60;;;;;;5065052;28;20197;-16
2023/05/08 10:25:55;;;;;;;;;;;22.30;82.70;;;;;;5065601;28;19908;-18
2023/05/08 10:28:46;;;;;;;;;;;22.30;82.70;;;;;;5065684;28;20552;-14
2023/05/08 10:31:13;;;;;;;;;;;22.30;82.80;;;;;;5017024;28;19908;-17
2023/05/08 10:33:40;;;;;;;;;;;22.30;82.90;;;;;;5064239;28;19974;-17
2023/05/08 10:36:06;;;;;;;;;;;22.30;83.10;;;;;;5063402;28;20011;-18
2023/05/08 10:38:32;;;;;;;;;;;22.30;83.10;;;;;;5062653;28;20011;-16
2023/05/08 10:41:01;;;;;;;;;;;22.30;83.10;;;;;;5060693;28;19923;-14
2023/05/08 10:43:27;;;;;;;;;;;22.30;83.10;;;;;;5056895;28;19918;-15
2023/05/08 10:45:54;;;;;;;;;;;22.30;83.10;;;;;;5064049;28;20007;-16
2023/05/08 10:48:38;;;;;;;;;;;22.30;83.00;;;;;;5066861;28;19943;-14
2023/05/08 10:51:15;;;;;;;;;;;22.30;82.90;;;;;;5068840;28;20377;-15
2023/05/08 10:53:52;;;;;;;;;;;22.30;82.80;;;;;;5067843;28;19939;-18
2023/05/08 10:56:23;;;;;;;;;;;22.40;82.70;;;;;;5066950;28;19915;-17
2023/05/08 10:58:54;;;;;;;;;;;22.40;82.60;;;;;;5067186;28;20147;-16
2023/05/08 11:01:20;;;;;;;;;;;22.40;82.50;;;;;;5050968;28;19908;-15
2023/05/08 11:03:46;;;;;;;;;;;22.40;82.40;;;;;;5068610;28;19996;-16
2023/05/08 11:06:14;;;;;;;;;;;22.40;82.50;;;;;;5068664;28;20286;-18
2023/05/08 11:08:45;;;;;;;;;;;22.50;83.80;;;;;;5068383;28;20070;-18
2023/05/08 11:11:15;;;;;;;;;;;22.50;84.70;;;;;;5066664;28;19908;-16
2023/05/08 11:13:43;;;;;;;;;;;22.50;84.50;;;;;;5067333;28;20155;-15
2023/05/08 11:16:12;;;;;;;;;;;22.60;84.80;;;;;;5047409;28;20184;-16
2023/05/08 11:18:57;;;;;;;;;;;22.60;84.40;;;;;;5078896;28;20197;-17
2023/05/08 11:21:23;;;;;;;;;;;22.70;84.20;;;;;;5084878;28;20216;-17
2023/05/08 11:23:55;;;;;;;;;;;22.70;84.10;;;;;;5085985;28;20069;-18
2023/05/08 11:26:21;;;;;;;;;;;22.80;83.50;;;;;;5067887;28;20022;-16
2023/05/08 11:28:53;;;;;;;;;;;22.90;82.90;;;;;;5087756;28;20055;-17
2023/05/08 11:31:19;;;;;;;;;;;22.90;82.20;;;;;;5084186;28;19908;-16
2023/05/08 11:33:45;;;;;;;;;;;23.00;82.10;;;;;;5085689;28;19923;-19
2023/05/08 11:36:15;;;;;;;;;;;23.00;82.20;;;;;;5067165;28;20010;-16
2023/05/08 11:38:42;;;;;;;;;;;23.00;82.30;;;;;;5068481;28;19908;-17
2023/05/08 11:41:08;;;;;;;;;;;23.00;82.40;;;;;;5086897;28;20209;-13
2023/05/08 11:43:36;;;;;;;;;;;23.00;82.40;;;;;;5092732;28;19912;-14
2023/05/08 11:46:07;;;;;;;;;;;23.00;82.30;;;;;;5086853;28;19908;-16
2023/05/08 11:48:33;;;;;;;;;;;23.00;82.00;;;;;;5088429;28;19951;-16
2023/05/08 11:51:00;;;;;;;;;;;23.00;82.50;;;;;;5088178;28;20226;-17
2023/05/08 11:53:25;;;;;;;;;;;23.00;82.40;;;;;;5091980;28;19935;-16
2023/05/08 11:55:52;;;;;;;;;;;23.00;82.40;;;;;;5095362;28;20261;-17
2023/05/08 11:58:17;;;;;;;;;;;23.10;82.50;;;;;;5085629;28;20181;-16
2023/05/08 12:00:44;;;;;;;;;;;23.10;82.40;;;;;;5067501;28;20281;-18
2023/05/08 12:03:16;;;;;;;;;;;23.10;82.50;;;;;;5085514;28;20075;-17
2023/05/08 12:05:42;;;;;;;;;;;23.10;82.30;;;;;;5084708;28;19908;-19
2023/05/08 12:08:08;;;;;;;;;;;23.10;81.70;;;;;;5085831;28;19912;-16
2023/05/08 12:10:39;;;;;;;;;;;23.10;81.50;;;;;;5084948;28;19908;-16
2023/05/08 12:13:14;;;;;;;;;;;23.20;81.20;;;;;;5084484;28;20218;-17
2023/05/08 12:15:40;;;;;;;;;;;23.20;81.00;;;;;;5083172;28;20152;-16
2023/05/08 12:18:05;;;;;;;;;;;23.30;80.60;;;;;;5070571;28;20303;-17
2023/05/08 12:20:31;;;;;;;;;;;23.30;80.00;;;;;;5086036;28;19962;-17
2023/05/08 12:22:57;;;;;;;;;;;23.30;80.50;;;;;;5086577;28;20023;-15
2023/05/08 12:25:24;;;;;;;;;;;23.30;80.90;;;;;;5082752;28;19961;-15
2023/05/08 12:27:50;;;;;;;;;;;23.30;80.50;;;;;;5083259;28;19915;-17
2023/05/08 12:30:15;;;;;;;;;;;23.40;80.60;;;;;;5084153;28;19919;-18
2023/05/08 12:32:42;;;;;;;;;;;23.40;80.60;;;;;;5082970;28;20044;-18
2023/05/08 12:35:10;;;;;;;;;;;23.40;80.80;;;;;;5085505;28;20010;-19
2023/05/08 12:37:35;;;;;;;;;;;23.30;80.00;;;;;;5085866;28;20266;-17
2023/05/08 12:40:02;;;;;;;;;;;23.40;80.30;;;;;;5085385;28;19915;-15
2023/05/08 12:42:43;;;;;;;;;;;23.40;80.20;;;;;;5086248;28;19908;-16
2023/05/08 12:45:15;;;;;;;;;;;23.40;80.20;;;;;;5086915;28;20060;-18
2023/05/08 12:47:43;;;;;;;;;;;23.40;80.10;;;;;;5087823;28;19908;-18
2023/05/08 12:50:10;;;;;;;;;;;23.40;80.30;;;;;;5087143;28;20067;-13
2023/05/08 12:52:36;;;;;;;;;;;23.40;80.20;;;;;;5084932;28;19943;-15
2023/05/08 12:55:02;;;;;;;;;;;23.50;79.80;;;;;;5091916;28;19950;-18
2023/05/08 12:57:28;;;;;;;;;;;23.50;79.70;;;;;;5096171;28;19962;-16
2023/05/08 13:00:01;;;;;;;;;;;23.50;79.80;;;;;;5097071;28;19939;-17
2023/05/08 13:02:27;;;;;;;;;;;23.50;79.60;;;;;;5094667;28;19919;-17
2023/05/08 13:04:54;;;;;;;;;;;23.50;79.30;;;;;;5096844;28;19908;-16
2023/05/08 13:07:21;;;;;;;;;;;23.60;79.10;;;;;;5095246;28;19908;-17
2023/05/08 13:10:03;;;;;;;;;;;23.60;78.70;;;;;;5095523;28;19946;-16
2023/05/08 13:12:29;;;;;;;;;;;23.60;78.80;;;;;;5095983;28;19961;-19
2023/05/08 13:14:54;;;;;;;;;;;23.60;78.70;;;;;;5096037;28;19918;-16
2023/05/08 13:17:23;;;;;;;;;;;23.60;78.80;;;;;;5095912;28;19990;-14
2023/05/08 13:19:48;;;;;;;;;;;23.60;79.20;;;;;;5095088;28;19920;-17
2023/05/08 13:22:14;;;;;;;;;;;23.60;78.80;;;;;;5095804;28;19961;-17
2023/05/08 13:24:39;;;;;;;;;;;23.60;78.60;;;;;;5094580;28;20397;-17
2023/05/08 13:27:05;;;;;;;;;;;23.60;78.60;;;;;;5095263;28;19964;-17
2023/05/08 13:29:30;;;;;;;;;;;23.60;78.60;;;;;;5076681;28;19966;-17
2023/05/08 13:31:56;;;;;;;;;;;23.60;78.40;;;;;;5077588;28;19912;-14
2023/05/08 13:34:26;;;;;;;;;;;23.60;78.50;;;;;;5093720;28;19959;-18
2023/05/08 13:36:52;;;;;;;;;;;23.70;78.40;;;;;;5094772;28;20155;-17
2023/05/08 13:39:17;;;;;;;;;;;23.70;78.60;;;;;;5094602;28;19919;-15
2023/05/08 13:41:43;;;;;;;;;;;23.70;78.70;;;;;;5095153;28;20236;-17
2023/05/08 13:44:09;;;;;;;;;;;23.70;78.60;;;;;;5076612;28;20006;-16
2023/05/08 13:46:34;;;;;;;;;;;23.70;78.60;;;;;;5093901;28;19919;-15
2023/05/08 13:49:00;;;;;;;;;;;23.70;78.90;;;;;;5075745;28;20481;-19
2023/05/08 13:51:25;;;;;;;;;;;23.70;79.00;;;;;;5093535;28;19908;-14
2023/05/08 13:53:51;;;;;;;;;;;23.70;78.70;;;;;;5077544;28;19908;-15
2023/05/08 13:56:16;;;;;;;;;;;23.70;78.70;;;;;;5094134;28;20521;-17
2023/05/08 13:58:45;;;;;;;;;;;23.70;78.80;;;;;;5076744;28;19961;-15
2023/05/08 14:01:11;;;;;;;;;;;23.70;79.00;;;;;;5094322;28;19923;-16
2023/05/08 14:03:37;;;;;;;;;;;23.60;79.20;;;;;;5096025;28;19916;-18
2023/05/08 14:06:04;;;;;;;;;;;23.60;79.20;;;;;;5095579;28;19962;-16
2023/05/08 14:08:30;;;;;;;;;;;23.60;79.20;;;;;;5094521;28;19943;-20
2023/05/08 14:10:55;;;;;;;;;;;23.60;80.00;;;;;;5094141;28;20301;-15
2023/05/08 14:13:21;;;;;;;;;;;23.60;80.00;;;;;;5095504;28;19985;-15
2023/05/08 14:15:46;;;;;;;;;;;23.60;79.90;;;;;;5095188;28;19993;-18
2023/05/08 14:18:12;;;;;;;;;;;23.60;80.00;;;;;;5077864;28;20239;-17
2023/05/08 14:20:38;;;;;;;;;;;23.60;79.90;;;;;;5094970;28;19916;-16